Time;durP1;ratioP1;P1;durP2;ratioP2;P2;SDS_P1;SDS_P2;PMS_P1;PMS_P2;Temp;Humidity;BMP_temperature;BMP_pressure;BME280_temperature;BME280_humidity;BME280_pressure;Samples;Min_cycle;Max_cycle;Signal;HPM_P1;HPM_P2
2022/08/01 00:02:00;;;;;;;10.47;6.80;;;;;;;-143.84;92.87;45068.13;5093457;28;20452;-73
2022/08/01 00:04:27;;;;;;;10.50;7.53;;;;;;;-143.84;92.33;45071.91;5093294;28;20443;-72
2022/08/01 00:06:54;;;;;;;8.20;7.50;;;;;;;-143.84;92.02;45066.22;5093361;28;20925;-72
2022/08/01 00:09:21;;;;;;;11.23;8.13;;;;;;;-143.84;92.19;45056.69;5093338;28;20501;-73
2022/08/01 00:11:49;;;;;;;12.60;7.63;;;;;;;-143.84;91.79;45039.53;5108403;28;20817;-73
2022/08/01 00:14:16;;;;;;;11.60;7.37;;;;;;;-143.84;91.40;45066.22;5113974;28;20779;-73
2022/08/01 00:16:43;;;;;;;10.43;7.30;;;;;;;-143.84;91.01;45049.06;5113683;28;20431;-72
2022/08/01 00:19:12;;;;;;;8.63;7.83;;;;;;;-143.84;91.06;45054.78;5113697;28;20487;-72
2022/08/01 00:21:39;;;;;;;8.90;7.10;;;;;;;-143.84;91.46;45058.59;5113339;28;20443;-72
2022/08/01 00:24:07;;;;;;;12.57;7.60;;;;;;;-143.84;92.32;45071.91;5113600;28;20491;-72
2022/08/01 00:26:34;;;;;;;8.50;6.83;;;;;;;-143.84;91.67;45049.06;5098733;28;20478;-72
2022/08/01 00:29:01;;;;;;;14.10;7.97;;;;;;;-143.84;92.02;45060.50;5073245;28;20432;-72
2022/08/01 00:31:28;;;;;;;11.57;8.30;;;;;;;-143.84;91.60;45083.34;5073055;28;20425;-73
2022/08/01 00:33:56;;;;;;;12.70;10.10;;;;;;;-143.84;91.84;45058.59;5072905;28;20440;-73
2022/08/01 00:36:24;;;;;;;14.30;9.57;;;;;;;-143.84;91.37;45049.06;5072830;28;20441;-73
2022/08/01 00:38:51;;;;;;;14.03;9.90;;;;;;;-143.84;90.32;45052.88;5072566;28;20448;-72
2022/08/01 00:41:18;;;;;;;11.90;8.93;;;;;;;-143.84;89.78;45070.00;5072775;28;20433;-72
2022/08/01 00:43:46;;;;;;;10.10;9.10;;;;;;;-143.84;88.73;45090.97;5072409;28;20950;-72
2022/08/01 00:46:13;;;;;;;13.43;9.33;;;;;;;-143.84;87.65;45071.91;5071735;28;20960;-72
2022/08/01 00:48:40;;;;;;;14.93;7.40;;;;;;;-143.84;86.52;45071.91;5071231;28;20476;-72
2022/08/01 00:51:08;;;;;;;9.10;7.07;;;;;;;-143.84;85.16;45039.53;5071913;28;20869;-73
2022/08/01 00:53:37;;;;;;;9.23;6.97;;;;;;;-143.84;84.38;45070.00;5072474;28;20506;-72
2022/08/01 00:56:05;;;;;;;8.20;5.93;;;;;;;-143.84;83.33;45035.75;5073147;28;20547;-72
2022/08/01 00:58:33;;;;;;;10.07;6.50;;;;;;;-143.84;82.15;45071.91;5073838;28;20472;-72
2022/08/01 01:01:01;;;;;;;10.97;7.10;;;;;;;-143.84;82.52;45087.16;5073789;28;20433;-72
2022/08/01 01:03:29;;;;;;;6.40;5.80;;;;;;;-143.84;81.95;45064.31;5073242;28;20425;-72
2022/08/01 01:06:08;;;;;;;11.53;5.93;;;;;;;-143.84;81.28;45100.47;5085119;28;20444;-72
2022/08/01 01:08:43;;;;;;;6.20;5.57;;;;;;;-143.84;80.45;45064.31;5093631;28;20487;-72
2022/08/01 01:11:19;;;;;;;6.97;6.20;;;;;;;-143.84;79.49;45062.41;5093444;28;20475;-72
2022/08/01 01:13:53;;;;;;;10.30;5.30;;;;;;;-143.84;77.85;45071.91;5093869;28;20428;-72
2022/08/01 01:16:23;;;;;;;5.70;5.20;;;;;;;-143.84;76.83;45056.69;5093591;28;20428;-72
2022/08/01 01:18:54;;;;;;;7.33;4.80;;;;;;;-143.84;74.49;45070.00;5092389;28;21005;-72
2022/08/01 01:21:40;;;;;;;6.00;4.80;;;;;;;-143.84;74.34;45056.69;5093161;28;20438;-72
2022/08/01 01:24:21;;;;;;;5.00;4.53;;;;;;;-143.84;73.03;45068.13;5092814;28;20493;-71
2022/08/01 01:26:58;;;;;;;5.63;4.70;;;;;;;-143.84;72.70;45056.69;5084527;28;20506;-72
2022/08/01 01:29:31;;;;;;;5.60;4.50;;;;;;;-143.84;71.90;45049.06;5072810;28;20448;-73
2022/08/01 01:32:05;;;;;;;5.00;4.50;;;;;;;-143.84;71.94;45047.16;5072373;28;20457;-73
2022/08/01 01:34:35;;;;;;;6.97;4.90;;;;;;;-143.84;71.38;45060.50;5072805;28;20438;-72
2022/08/01 01:37:05;;;;;;;4.83;4.20;;;;;;;-143.84;71.28;45062.41;5072726;28;21096;-72
2022/08/01 01:39:35;;;;;;;4.70;4.27;;;;;;;-143.84;71.41;45087.16;5072884;28;20429;-72
2022/08/01 01:42:03;;;;;;;4.97;4.37;;;;;;;-143.84;69.57;45056.69;5072125;28;20436;-72
2022/08/01 01:44:33;;;;;;;4.87;4.47;;;;;;;-143.84;68.46;45073.81;5071669;28;20433;-72
2022/08/01 01:47:01;;;;;;;17.53;4.77;;;;;;;-143.84;67.76;45071.91;5071196;28;20445;-72
2022/08/01 01:49:29;;;;;;;6.30;3.97;;;;;;;-143.84;67.18;45070.00;5071186;28;20436;-72
2022/08/01 01:51:59;;;;;;;6.03;3.53;;;;;;;-143.84;68.04;45041.44;5071527;28;20491;-72
2022/08/01 01:54:37;;;;;;;3.63;3.40;;;;;;;-143.84;68.01;45047.16;5071392;28;20460;-72
2022/08/01 01:57:06;;;;;;;6.50;3.97;;;;;;;-143.84;67.06;45075.72;5071079;28;21060;-72
2022/08/01 01:59:39;;;;;;;6.60;3.90;;;;;;;-143.84;66.82;45073.81;5070635;28;20452;-72
2022/08/01 02:02:09;;;;;;;7.73;3.67;;;;;;;-143.84;67.47;45070.00;5070893;28;20491;-72
2022/08/01 02:04:39;;;;;;;5.10;3.57;;;;;;;-143.84;67.03;45070.00;5070398;28;20448;-72
2022/08/01 02:07:08;;;;;;;3.60;3.40;;;;;;;-143.84;67.38;45064.31;5070769;28;20468;-72
2022/08/01 02:09:38;;;;;;;3.50;3.20;;;;;;;-143.84;67.07;45039.53;5071248;28;20441;-72
2022/08/01 02:12:07;;;;;;;7.60;3.63;;;;;;;-143.84;66.71;45077.63;5071368;28;20488;-72
2022/08/01 02:14:39;;;;;;;3.60;3.27;;;;;;;-143.84;67.32;45068.13;5070298;28;20435;-73
2022/08/01 02:17:07;;;;;;;3.97;3.53;;;;;;;-143.84;67.64;45056.69;5070088;28;20441;-73
2022/08/01 02:19:35;;;;;;;3.80;3.50;;;;;;;-143.84;67.94;45060.50;5070180;28;20443;-73
2022/08/01 02:22:05;;;;;;;8.20;3.50;;;;;;;-143.84;67.45;45062.41;5070352;28;20436;-73
2022/08/01 02:24:37;;;;;;;6.17;3.30;;;;;;;-143.84;67.07;45070.00;5069920;28;20441;-73
2022/08/01 02:27:10;;;;;;;3.70;3.50;;;;;;;-143.84;66.96;45070.00;5078786;28;20976;-73
2022/08/01 02:29:44;;;;;;;4.03;3.73;;;;;;;-143.84;67.28;45049.06;5089302;28;20937;-73
2022/08/01 02:32:17;;;;;;;4.10;3.60;;;;;;;-143.84;67.82;45071.91;5088968;28;20451;-72
2022/08/01 02:34:49;;;;;;;3.20;3.00;;;;;;;-143.84;67.31;45073.81;5090178;28;20436;-72
2022/08/01 02:37:18;;;;;;;3.67;3.47;;;;;;;-143.84;67.25;45079.53;5089255;28;20513;-73
2022/08/01 02:39:49;;;;;;;5.23;3.47;;;;;;;-143.84;67.43;45052.88;5088462;28;20505;-73
2022/08/01 02:42:19;;;;;;;3.03;2.80;;;;;;;-143.84;67.27;45064.31;5088245;28;20444;-73
2022/08/01 02:44:50;;;;;;;3.63;3.20;;;;;;;-143.84;67.33;45054.78;5089490;28;20440;-73
2022/08/01 02:47:21;;;;;;;5.80;3.43;;;;;;;-143.84;67.38;45071.91;5089065;28;20452;-73
2022/08/01 02:49:50;;;;;;;3.40;3.10;;;;;;;-143.84;67.60;45039.53;5089546;28;20439;-73
2022/08/01 02:52:19;;;;;;;3.57;3.40;;;;;;;-143.84;67.21;45054.78;5089624;28;20442;-73
2022/08/01 02:54:50;;;;;;;3.33;3.13;;;;;;;-143.84;67.32;45075.72;5090328;28;20464;-73
2022/08/01 02:57:19;;;;;;;6.83;2.87;;;;;;;-143.84;67.55;45077.63;5089816;28;20839;-72
2022/08/01 02:59:49;;;;;;;5.60;3.37;;;;;;;-143.84;67.41;45068.13;5089944;28;20436;-73
2022/08/01 03:02:18;;;;;;;3.63;3.43;;;;;;;-143.84;67.84;45071.91;5089994;28;20785;-73
2022/08/01 03:04:46;;;;;;;3.67;3.37;;;;;;;-143.84;68.04;45066.22;5089859;28;20440;-73
2022/08/01 03:07:15;;;;;;;11.03;2.63;;;;;;;-143.84;68.43;45081.44;5089567;28;21022;-73
2022/08/01 03:09:45;;;;;;;7.40;3.20;;;;;;;-143.84;68.89;45043.34;5090320;28;20489;-73
2022/08/01 03:12:16;;;;;;;8.33;3.10;;;;;;;-143.84;69.20;45106.19;5089495;28;20483;-73
2022/08/01 03:14:45;;;;;;;5.53;2.80;;;;;;;-143.84;69.29;45090.97;5090023;28;20451;-73
2022/08/01 03:17:16;;;;;;;7.73;3.43;;;;;;;-143.84;69.21;45062.41;5108800;28;20447;-73
2022/08/01 03:19:46;;;;;;;4.40;2.43;;;;;;;-143.84;69.40;45066.22;5110321;28;20451;-73
2022/08/01 03:22:15;;;;;;;2.60;2.50;;;;;;;-143.84;68.60;45075.72;5110045;28;20415;-73
2022/08/01 03:24:45;;;;;;;4.80;2.80;;;;;;;-143.84;68.13;45066.22;5110230;28;20527;-73
2022/08/01 03:27:15;;;;;;;4.63;3.40;;;;;;;-143.84;67.81;45062.41;5093881;28;20448;-73
2022/08/01 03:29:44;;;;;;;6.00;3.23;;;;;;;-143.84;68.29;45085.25;5073445;28;21051;-73
2022/08/01 03:32:14;;;;;;;4.13;2.20;;;;;;;-143.84;67.87;45056.69;5073733;28;20453;-71
2022/08/01 03:34:42;;;;;;;4.10;2.50;;;;;;;-143.84;67.65;45045.25;5073690;28;20447;-71
2022/08/01 03:37:13;;;;;;;2.80;2.60;;;;;;;-143.84;67.61;45071.91;5073686;28;20510;-71
2022/08/01 03:39:48;;;;;;;4.23;2.73;;;;;;;-143.84;67.13;45077.63;5073813;28;20506;-71
2022/08/01 03:42:21;;;;;;;4.13;2.57;;;;;;;-143.84;66.46;45075.72;5073564;28;20821;-71
2022/08/01 03:44:55;;;;;;;4.03;2.33;;;;;;;-143.84;65.56;45052.88;5073535;28;21230;-71
2022/08/01 03:47:27;;;;;;;4.70;2.27;;;;;;;-143.84;64.65;45062.41;5072831;28;20813;-71
2022/08/01 03:49:56;;;;;;;2.33;2.20;;;;;;;-143.84;62.01;45064.31;5073084;28;20449;-71
2022/08/01 03:52:23;;;;;;;4.50;1.93;;;;;;;-143.84;58.84;45052.88;5072683;28;20872;-71
2022/08/01 03:54:53;;;;;;;2.10;1.80;;;;;;;-143.84;54.55;45043.34;5072703;28;20502;-71
2022/08/01 03:57:21;;;;;;;5.33;1.80;;;;;;;-143.84;51.25;45043.34;5072682;28;20441;-72
2022/08/01 03:59:50;;;;;;;6.00;1.90;;;;;;;-143.84;48.48;45022.41;5073057;28;20438;-72
2022/08/01 04:02:18;;;;;;;6.03;1.53;;;;;;;-143.84;46.05;45012.88;5072902;28;20923;-71
2022/08/01 04:04:47;;;;;;;4.10;1.80;;;;;;;-143.84;44.33;45005.28;5072266;28;20451;-72
2022/08/01 04:07:24;;;;;;;1.70;1.60;;;;;;;-143.84;42.86;44997.66;5071867;28;20478;-72
2022/08/01 04:09:52;;;;;;;7.07;1.90;;;;;;;-143.84;42.60;45007.19;5072538;28;20508;-72
2022/08/01 04:12:19;;;;;;;2.60;2.00;;;;;;;-143.84;41.23;45012.88;5071546;28;20587;-72
2022/08/01 04:14:47;;;;;;;4.80;2.70;;;;;;;-143.84;41.08;45003.38;5072003;28;20447;-72
2022/08/01 04:17:14;;;;;;;4.17;1.47;;;;;;;-143.84;40.55;45005.28;5072520;28;20436;-72
2022/08/01 04:19:42;;;;;;;8.83;1.37;;;;;;;-143.84;40.98;44991.94;5072377;28;20887;-72
2022/08/01 04:22:12;;;;;;;10.13;2.07;;;;;;;-143.84;40.93;45018.59;5072572;28;20783;-72
2022/08/01 04:24:42;;;;;;;7.63;2.10;;;;;;;-143.84;40.97;45001.47;5072340;28;20514;-72
2022/08/01 04:27:14;;;;;;;4.70;1.53;;;;;;;-143.84;40.80;45022.41;5086481;28;20449;-72
2022/08/01 04:29:43;;;;;;;2.70;1.70;;;;;;;-143.84;40.95;45012.88;5113135;28;20555;-73
2022/08/01 04:32:14;;;;;;;4.27;1.50;;;;;;;-143.84;40.63;45009.09;5113142;28;20500;-73
2022/08/01 04:34:45;;;;;;;8.07;1.50;;;;;;;-143.84;40.66;44982.41;5112413;28;20928;-73
2022/08/01 04:37:17;;;;;;;1.80;1.57;;;;;;;-143.84;40.40;44997.66;5111884;28;20442;-73
2022/08/01 04:39:46;;;;;;;7.53;1.23;;;;;;;-143.84;40.37;44980.53;5111786;28;20534;-73
2022/08/01 04:42:16;;;;;;;4.03;1.50;;;;;;;-143.84;41.00;45005.28;5112348;28;20446;-73
2022/08/01 04:44:43;;;;;;;4.03;1.50;;;;;;;-143.84;40.63;44990.03;5111927;28;20466;-73
2022/08/01 04:47:11;;;;;;;3.13;1.73;;;;;;;-143.84;41.25;45012.88;5112077;28;20488;-73
2022/08/01 04:49:38;;;;;;;4.00;1.33;;;;;;;-143.84;41.65;44982.41;5111842;28;20470;-73
2022/08/01 04:52:06;;;;;;;6.40;3.40;;;;;;;-143.84;42.27;45003.38;5112056;28;20439;-73
2022/08/01 04:54:37;;;;;;;7.00;3.90;;;;;;;-143.84;41.99;44999.56;5111923;28;20937;-73
2022/08/01 04:57:06;;;;;;;7.47;3.10;;;;;;;-143.84;42.74;45007.19;5111811;28;20512;-73
2022/08/01 04:59:42;;;;;;;3.33;2.80;;;;;;;-143.84;43.02;45033.84;5111661;28;20797;-73
2022/08/01 05:02:11;;;;;;;9.30;2.10;;;;;;;-143.84;43.36;44984.31;5111911;28;21220;-73
2022/08/01 05:04:40;;;;;;;1.77;1.47;;;;;;;-143.84;43.18;45007.19;5111740;28;20450;-73
2022/08/01 05:07:08;;;;;;;4.20;1.90;;;;;;;-143.84;42.82;44999.56;5112147;28;20940;-72
2022/08/01 05:09:37;;;;;;;5.50;2.00;;;;;;;-143.84;43.74;45018.59;5112127;28;20485;-72
2022/08/01 05:12:06;;;;;;;4.13;1.60;;;;;;;-143.84;44.07;45010.97;5112396;28;20535;-73
2022/08/01 05:14:34;;;;;;;2.47;1.83;;;;;;;-143.84;43.96;44986.22;5112478;28;20439;-73
2022/08/01 05:17:02;;;;;;;3.97;1.97;;;;;;;-143.84;43.62;45001.47;5112143;28;20856;-73
2022/08/01 05:19:31;;;;;;;1.87;1.70;;;;;;;-143.84;43.46;45003.38;5112122;28;20473;-73
2022/08/01 05:22:00;;;;;;;1.73;1.63;;;;;;;-143.84;43.14;45012.88;5112136;28;20440;-73
2022/08/01 05:24:28;;;;;;;2.60;1.90;;;;;;;-143.84;42.35;45001.47;5111508;28;20447;-73
2022/08/01 05:26:57;;;;;;;2.30;2.10;;;;;;;-143.84;41.71;44999.56;5108753;28;20444;-73
2022/08/01 05:29:25;;;;;;;4.60;2.10;;;;;;;-143.84;42.26;44995.75;5091363;28;20589;-73
2022/08/01 05:31:52;;;;;;;4.60;2.20;;;;;;;-143.84;41.11;45007.19;5090488;28;20785;-73
2022/08/01 05:34:20;;;;;;;3.90;1.77;;;;;;;-143.84;40.60;44999.56;5090608;28;20493;-72
2022/08/01 05:36:47;;;;;;;8.60;1.93;;;;;;;-143.84;40.09;45005.28;5090674;28;20556;-72
2022/08/01 05:39:15;;;;;;;2.07;1.50;;;;;;;-143.84;39.76;44995.75;5091410;28;20775;-72
2022/08/01 05:41:42;;;;;;;9.13;2.43;;;;;;;-143.84;39.84;45010.97;5090665;28;21003;-72
2022/08/01 05:44:11;;;;;;;4.43;1.70;;;;;;;-143.84;39.96;44999.56;5091020;28;20436;-72
2022/08/01 05:46:38;;;;;;;1.87;1.77;;;;;;;-143.84;40.05;44991.94;5091166;28;21150;-72
2022/08/01 05:49:06;;;;;;;3.50;2.00;;;;;;;-143.84;39.60;44991.94;5089932;28;20471;-72
2022/08/01 05:51:34;;;;;;;6.30;2.20;;;;;;;-143.84;39.32;44980.53;5089898;28;20432;-72
2022/08/01 05:54:02;;;;;;;2.40;1.63;;;;;;;-143.84;39.56;44986.22;5090049;28;20436;-72
2022/08/01 05:58:45;;;;;;;1.93;1.83;;;;;;;-143.84;39.57;44976.72;5048190;27;1629789;-71
2022/08/01 06:01:12;;;;;;;5.43;1.90;;;;;;;-143.84;39.60;45007.19;5107626;28;20595;-71
2022/08/01 06:03:39;;;;;;;4.77;1.60;;;;;;;-143.84;40.20;44980.53;5125345;28;20950;-71
2022/08/01 06:06:06;;;;;;;6.50;1.90;;;;;;;-143.84;40.03;44967.19;5119109;28;20446;-71
2022/08/01 06:08:34;;;;;;;4.77;2.07;;;;;;;-143.84;40.03;44997.66;5106727;28;20546;-71
2022/08/01 06:11:01;;;;;;;7.03;1.60;;;;;;;-143.84;39.25;44961.47;5106492;28;20435;-71
2022/08/01 06:13:28;;;;;;;7.80;1.77;;;;;;;-143.84;39.15;44972.91;5106645;28;20450;-71
2022/08/01 06:15:57;;;;;;;6.33;2.00;;;;;;;-143.84;38.59;44972.91;5106571;28;20485;-70
2022/08/01 06:18:24;;;;;;;2.47;1.37;;;;;;;-143.84;38.07;44967.19;5106507;28;21352;-71
2022/08/01 06:20:51;;;;;;;6.40;1.87;;;;;;;-143.84;38.15;44974.81;5106722;28;20431;-71
2022/08/01 06:23:19;;;;;;;2.60;2.10;;;;;;;-143.84;37.95;44988.13;5105785;28;20447;-70
2022/08/01 06:25:46;;;;;;;2.90;2.60;;;;;;;-143.84;38.57;44965.28;5105908;28;20435;-70
2022/08/01 06:28:13;;;;;;;3.83;1.70;;;;;;;-143.84;37.83;44980.53;5105673;28;20447;-70
2022/08/01 06:30:40;;;;;;;2.33;2.00;;;;;;;-143.84;37.33;44969.09;5105711;28;20444;-70
2022/08/01 06:33:09;;;;;;;2.63;1.40;;;;;;;-143.84;37.15;44984.31;5106076;28;20443;-70
2022/08/01 06:35:36;;;;;;;3.30;1.60;;;;;;;-143.84;38.17;44976.72;5106040;28;20449;-70
2022/08/01 06:38:03;;;;;;;4.03;1.40;;;;;;;-143.84;36.83;44955.75;5106024;28;20975;-70
2022/08/01 06:40:31;;;;;;;2.60;1.57;;;;;;;-143.84;36.96;44978.63;5105934;28;20443;-70
2022/08/01 06:42:58;;;;;;;3.27;1.30;;;;;;;-143.84;36.90;44980.53;5105559;28;20686;-71
2022/08/01 06:45:26;;;;;;;2.97;1.20;;;;;;;-143.84;36.90;45007.19;5105408;28;20435;-71
2022/08/01 06:47:54;;;;;;;10.33;1.67;;;;;;;-143.84;36.35;44967.19;5106323;28;20686;-71
2022/08/01 06:50:22;;;;;;;1.83;1.40;;;;;;;-143.84;36.27;44963.38;5105934;28;20438;-71
2022/08/01 06:52:49;;;;;;;6.57;1.00;;;;;;;-143.84;36.07;44963.38;5105939;28;20455;-71
2022/08/01 06:55:17;;;;;;;5.53;1.10;;;;;;;-143.84;36.40;44980.53;5105632;28;21026;-71
2022/08/01 06:57:48;;;;;;;5.47;1.20;;;;;;;-143.84;36.56;44957.66;5105150;28;20495;-70
2022/08/01 07:00:18;;;;;;;3.70;1.40;;;;;;;-143.84;36.02;44974.81;5105793;28;20434;-71
2022/08/01 07:02:46;;;;;;;2.33;1.60;;;;;;;-143.84;37.04;44990.03;5105452;28;20449;-70
2022/08/01 07:05:13;;;;;;;2.67;1.30;;;;;;;-143.84;36.46;44965.28;5105569;28;20861;-71
2022/08/01 07:07:42;;;;;;;21.17;1.73;;;;;;;-143.84;36.55;44971.00;5105327;28;20435;-71
2022/08/01 07:10:10;;;;;;;8.67;1.87;;;;;;;-143.84;36.88;44957.66;5091172;28;20440;-71
2022/08/01 07:12:38;;;;;;;1.93;1.50;;;;;;;-143.84;36.80;44955.75;5091687;28;20428;-71
2022/08/01 07:15:06;;;;;;;5.37;2.70;;;;;;;-143.84;37.02;44980.53;5091967;28;20523;-71
2022/08/01 07:17:33;;;;;;;9.90;1.80;;;;;;;-143.84;36.92;44971.00;5090943;28;20579;-71
2022/08/01 07:20:01;;;;;;;3.20;1.90;;;;;;;-143.84;36.44;44957.66;5091045;28;21034;-71
2022/08/01 07:22:28;;;;;;;2.23;1.63;;;;;;;-143.84;35.93;44955.75;5091301;28;20439;-72
2022/08/01 07:24:57;;;;;;;2.80;1.20;;;;;;;-143.84;36.06;44940.53;5091355;28;20443;-71
2022/08/01 07:27:24;;;;;;;10.20;1.50;;;;;;;-143.84;35.66;44980.53;5091604;28;20447;-71
2022/08/01 07:29:51;;;;;;;5.00;1.50;;;;;;;-143.84;35.94;44923.41;5091538;28;20432;-71
2022/08/01 07:32:18;;;;;;;3.67;1.93;;;;;;;-143.84;35.20;44913.88;5091603;28;20872;-72
2022/08/01 07:34:46;;;;;;;2.20;1.10;;;;;;;-143.84;35.47;44940.53;5091235;28;20440;-72
2022/08/01 07:37:13;;;;;;;10.27;1.20;;;;;;;-143.84;34.75;44917.69;5091283;28;20472;-72
2022/08/01 07:39:40;;;;;;;3.87;1.47;;;;;;;-143.84;34.39;44929.09;5091254;28;20428;-72
2022/08/01 07:42:09;;;;;;;2.43;1.40;;;;;;;-143.84;35.28;44942.44;5091274;28;20440;-72
2022/08/01 07:44:36;;;;;;;2.77;1.60;;;;;;;-143.84;35.11;44892.94;5091529;28;20517;-72
2022/08/01 07:47:05;;;;;;;3.10;1.20;;;;;;;-143.84;34.14;44923.41;5091125;28;20428;-71
2022/08/01 07:49:32;;;;;;;1.73;1.33;;;;;;;-143.84;34.41;44900.53;5091019;28;20446;-72
2022/08/01 07:52:00;;;;;;;8.03;1.20;;;;;;;-143.84;34.27;44898.66;5090817;28;20447;-72
2022/08/01 07:54:28;;;;;;;2.27;1.07;;;;;;;-143.84;33.19;44910.06;5091051;28;20432;-72
2022/08/01 07:56:55;;;;;;;2.80;0.87;;;;;;;-143.84;33.66;44898.66;5098484;28;20473;-72
2022/08/01 07:59:24;;;;;;;5.10;1.60;;;;;;;-143.84;33.90;44885.31;5090886;28;20845;-72
2022/08/01 08:01:52;;;;;;;1.60;1.03;;;;;;;-143.84;33.17;44910.06;5090829;28;21039;-72
2022/08/01 08:04:19;;;;;;;9.00;1.20;;;;;;;-143.84;33.50;44881.50;5090941;28;20436;-72
2022/08/01 08:06:47;;;;;;;1.43;0.90;;;;;;;-143.84;32.70;44891.03;5090509;28;20438;-72
2022/08/01 08:09:15;;;;;;;1.17;1.07;;;;;;;-143.84;31.97;44896.75;5090888;28;20639;-72
2022/08/01 08:11:44;;;;;;;5.60;1.23;;;;;;;-143.84;32.51;44877.69;5090609;28;20447;-71
2022/08/01 08:14:11;;;;;;;7.20;1.00;;;;;;;-143.84;33.57;44849.13;5089693;28;20460;-72
2022/08/01 08:16:40;;;;;;;1.50;1.07;;;;;;;-143.84;32.93;44889.13;5089491;28;20452;-72
2022/08/01 08:19:07;;;;;;;1.10;1.00;;;;;;;-143.84;32.23;44900.53;5089494;28;20475;-72
2022/08/01 08:21:34;;;;;;;1.17;0.73;;;;;;;-143.84;33.12;44851.03;5089038;28;20441;-72
2022/08/01 08:26:45;;;;;;;2.63;1.00;;;;;;;-143.84;32.48;44889.13;5090160;28;20429;-72
2022/08/01 08:29:13;;;;;;;1.30;0.90;;;;;;;-143.84;32.06;44851.03;5090187;28;20505;-72
2022/08/01 08:31:42;;;;;;;5.30;1.20;;;;;;;-143.84;31.76;44843.44;5090105;28;20865;-72
2022/08/01 08:34:09;;;;;;;2.53;1.17;;;;;;;-143.84;32.79;44849.13;5090235;28;20436;-72
2022/08/01 08:36:36;;;;;;;3.87;1.20;;;;;;;-143.84;32.00;44851.03;5090141;28;20439;-72
2022/08/01 08:39:04;;;;;;;1.97;1.10;;;;;;;-143.84;31.76;44839.63;5090076;28;20475;-72
2022/08/01 08:41:32;;;;;;;1.30;1.17;;;;;;;-143.84;32.20;44892.94;5090002;28;20447;-72
2022/08/01 08:43:59;;;;;;;1.47;1.13;;;;;;;-143.84;31.88;44866.28;5089420;28;20435;-72
2022/08/01 08:46:28;;;;;;;1.50;0.97;;;;;;;-143.84;31.11;44862.47;5089210;28;20440;-72
2022/08/01 08:48:57;;;;;;;1.53;0.90;;;;;;;-143.84;31.49;44852.94;5089374;28;20854;-72
2022/08/01 08:51:27;;;;;;;1.90;0.70;;;;;;;-143.84;31.44;44854.84;5089168;28;20440;-72
2022/08/01 08:53:56;;;;;;;3.80;0.90;;;;;;;-143.84;31.32;44856.75;5089884;28;20890;-72
2022/08/01 08:56:25;;;;;;;1.57;0.97;;;;;;;-143.84;31.09;44852.94;5089404;28;20447;-72
2022/08/01 08:58:53;;;;;;;1.97;1.10;;;;;;;-143.84;31.58;44854.84;5089027;28;20530;-72
2022/08/01 09:01:20;;;;;;;2.30;1.00;;;;;;;-143.84;31.32;44860.56;5088985;28;20446;-72
2022/08/01 09:03:49;;;;;;;1.20;1.00;;;;;;;-143.84;31.34;44828.19;5089138;28;20489;-72
2022/08/01 09:06:18;;;;;;;3.43;1.17;;;;;;;-143.84;30.10;44860.56;5089377;28;20525;-72
2022/08/01 09:08:45;;;;;;;3.63;1.23;;;;;;;-143.84;31.47;44873.88;5089353;28;20428;-72
2022/08/01 09:11:13;;;;;;;1.00;0.90;;;;;;;-143.84;31.07;44833.91;5090145;28;20623;-73
2022/08/01 09:13:40;;;;;;;4.90;1.30;;;;;;;-143.84;31.71;44835.81;5090110;28;20893;-73
2022/08/01 09:16:08;;;;;;;7.47;1.23;;;;;;;-143.84;31.51;44822.47;5089633;28;20497;-73
2022/08/01 09:18:40;;;;;;;1.40;1.00;;;;;;;-143.84;30.15;44854.84;5089450;28;20483;-73
2022/08/01 09:21:16;;;;;;;4.20;0.80;;;;;;;-143.84;30.64;44843.44;5088912;28;20445;-73
2022/08/01 09:23:47;;;;;;;1.20;1.10;;;;;;;-143.84;30.56;44847.22;5089452;28;20809;-73
2022/08/01 09:26:16;;;;;;;3.50;0.83;;;;;;;-143.84;30.92;44843.44;5089385;28;20448;-74
2022/08/01 09:28:45;;;;;;;3.60;0.90;;;;;;;-143.84;31.12;44845.31;5089905;28;20501;-73
2022/08/01 09:31:14;;;;;;;1.10;0.80;;;;;;;-143.84;31.18;44841.53;5089358;28;20440;-73
2022/08/01 09:33:50;;;;;;;6.00;1.17;;;;;;;-143.84;30.89;44843.44;5089587;28;20936;-74
2022/08/01 09:36:17;;;;;;;1.07;0.97;;;;;;;-143.84;31.61;44852.94;5089615;28;20443;-74
2022/08/01 09:38:46;;;;;;;2.43;1.00;;;;;;;-143.84;32.20;44841.53;5089634;28;20487;-74
2022/08/01 09:41:13;;;;;;;1.77;0.87;;;;;;;-143.84;30.75;44849.13;5089901;28;20829;-74
2022/08/01 09:43:40;;;;;;;1.10;1.00;;;;;;;-143.84;30.78;44864.38;5089260;28;20439;-74
2022/08/01 09:46:12;;;;;;;1.80;0.93;;;;;;;-143.84;31.63;44833.91;5088990;28;20955;-73
2022/08/01 09:48:40;;;;;;;3.60;1.13;;;;;;;-143.84;31.91;44870.09;5089682;28;20917;-73
2022/08/01 09:51:08;;;;;;;1.27;1.00;;;;;;;-143.84;31.62;44837.72;5089572;28;20518;-73
2022/08/01 09:53:43;;;;;;;3.23;1.10;;;;;;;-143.84;31.13;44812.97;5089840;28;20436;-73
2022/08/01 09:56:13;;;;;;;1.30;0.90;;;;;;;-143.84;30.27;44858.66;5089179;28;20453;-73
2022/08/01 09:58:51;;;;;;;1.30;0.80;;;;;;;-143.84;30.17;44845.31;5100914;28;21203;-73
2022/08/01 10:01:22;;;;;;;5.90;1.07;;;;;;;-143.84;30.77;44833.91;5109833;28;20520;-73
2022/08/01 10:04:09;;;;;;;1.47;0.90;;;;;;;-143.84;30.77;44866.28;5109411;28;20556;-74
2022/08/01 10:06:37;;;;;;;2.23;1.10;;;;;;;-143.84;30.47;44841.53;5109867;28;20439;-74
2022/08/01 10:09:05;;;;;;;2.13;1.13;;;;;;;-143.84;30.85;44818.66;5109697;28;20431;-74
2022/08/01 10:11:36;;;;;;;0.90;0.70;;;;;;;-143.84;30.44;44826.28;5109882;28;20940;-74
2022/08/01 10:14:05;;;;;;;1.00;0.70;;;;;;;-143.84;30.38;44818.66;5109905;28;20507;-74
2022/08/01 10:16:34;;;;;;;1.10;0.90;;;;;;;-143.84;30.94;44835.81;5109587;28;20443;-74
2022/08/01 10:19:02;;;;;;;4.10;0.80;;;;;;;-143.84;29.69;44824.38;5109326;28;20478;-74
2022/08/01 10:21:33;;;;;;;3.90;1.10;;;;;;;-143.84;30.48;44820.56;5109450;28;20426;-74
2022/08/01 10:24:02;;;;;;;1.20;0.77;;;;;;;-143.84;29.75;44826.28;5109492;28;20993;-73
2022/08/01 10:26:33;;;;;;;2.73;1.40;;;;;;;-143.84;30.69;44818.66;5109224;28;20435;-73
2022/08/01 10:29:03;;;;;;;1.40;1.00;;;;;;;-143.84;30.07;44833.91;5109571;28;20443;-73
2022/08/01 10:31:32;;;;;;;3.37;0.97;;;;;;;-143.84;29.75;44828.19;5109291;28;20439;-74
2022/08/01 10:34:01;;;;;;;1.37;1.10;;;;;;;-143.84;29.72;44835.81;5109911;28;21244;-73
2022/08/01 10:36:29;;;;;;;5.30;1.20;;;;;;;-143.84;30.48;44807.25;5109660;28;20522;-73
2022/08/01 10:38:56;;;;;;;3.43;1.20;;;;;;;-143.84;30.13;44851.03;5109342;28;20490;-73
2022/08/01 10:41:25;;;;;;;2.47;1.10;;;;;;;-143.84;31.10;44868.19;5109265;28;20442;-73
2022/08/01 10:43:53;;;;;;;1.23;1.10;;;;;;;-143.84;31.26;44866.28;5109826;28;20438;-73
2022/08/01 10:46:22;;;;;;;6.53;1.00;;;;;;;-143.84;32.52;44875.78;5112616;28;20488;-74
2022/08/01 10:48:56;;;;;;;4.33;1.17;;;;;;;-143.84;32.37;44883.41;5112959;28;20525;-74
2022/08/01 10:51:24;;;;;;;8.00;1.43;;;;;;;-143.84;32.23;44845.31;5113041;28;20438;-74
2022/08/01 10:53:53;;;;;;;1.20;1.10;;;;;;;-143.84;31.53;44873.88;5113026;28;20947;-73
2022/08/01 10:56:21;;;;;;;4.17;1.37;;;;;;;-143.84;32.12;44852.94;5112899;28;20438;-73
2022/08/01 10:58:50;;;;;;;8.13;1.40;;;;;;;-143.84;32.45;44818.66;5101170;28;20480;-74
2022/08/01 11:01:23;;;;;;;3.23;1.20;;;;;;;-143.84;29.91;44862.47;5092797;28;20447;-74
2022/08/01 11:04:15;;;;;;;1.73;1.13;;;;;;;-143.84;29.96;44843.44;5092801;28;20443;-73
2022/08/01 11:07:04;;;;;;;1.60;1.00;;;;;;;-143.84;30.72;44828.19;5072459;28;20960;-74
2022/08/01 11:09:38;;;;;;;3.33;1.23;;;;;;;-143.84;29.89;44833.91;5091436;28;20442;-74
2022/08/01 11:12:11;;;;;;;1.67;1.10;;;;;;;-143.84;30.01;44843.44;5091400;28;20492;-73
2022/08/01 11:15:15;;;;;;;1.10;0.80;;;;;;;-143.84;30.96;44856.75;5092195;28;20448;-73
2022/08/01 11:17:48;;;;;;;3.93;1.07;;;;;;;-143.84;30.75;44832.00;5091361;28;20992;-73
2022/08/01 11:20:16;;;;;;;8.30;1.10;;;;;;;-143.84;30.54;44845.31;5091847;28;20558;-73
2022/08/01 11:23:28;;;;;;;3.20;1.00;;;;;;;-143.84;29.61;44851.03;5091939;28;20444;-73
2022/08/01 11:26:17;;;;;;;10.73;1.07;;;;;;;-143.84;30.87;44847.22;5092142;28;20508;-73
2022/08/01 11:28:46;;;;;;;2.27;1.20;;;;;;;-143.84;31.72;44826.28;5092141;28;20440;-73
2022/08/01 11:31:30;;;;;;;3.50;1.40;;;;;;;-143.84;31.63;44849.13;5091760;28;20485;-73
2022/08/01 11:34:00;;;;;;;1.10;1.00;;;;;;;-143.84;31.58;44822.47;5091917;28;20436;-74